sensor_id;sensor_type;location;lat;lon;timestamp;P1;durP1;ratioP1;P2;durP2;ratioP2
13469;SDS011;6807;48.682;9.032;2022-11-15T00:01:43;5.07;;;2.80;;
13469;SDS011;6807;48.682;9.032;2022-11-15T00:04:10;3.38;;;2.60;;
13469;SDS011;6807;48.682;9.032;2022-11-15T00:06:37;4.80;;;2.72;;
13469;SDS011;6807;48.682;9.032;2022-11-15T00:09:06;4.10;;;2.97;;
13469;SDS011;6807;48.682;9.032;2022-11-15T00:11:33;3.92;;;2.83;;
13469;SDS011;6807;48.682;9.032;2022-11-15T00:14:00;3.90;;;3.42;;
13469;SDS011;6807;48.682;9.032;2022-11-15T00:16:28;6.95;;;2.80;;
13469;SDS011;6807;48.682;9.032;2022-11-15T00:18:55;5.13;;;2.90;;
13469;SDS011;6807;48.682;9.032;2022-11-15T00:21:23;3.67;;;2.95;;
13469;SDS011;6807;48.682;9.032;2022-11-15T00:23:50;5.20;;;3.05;;
13469;SDS011;6807;48.682;9.032;2022-11-15T00:26:19;4.15;;;3.30;;
13469;SDS011;6807;48.682;9.032;2022-11-15T00:28:46;3.05;;;2.72;;
13469;SDS011;6807;48.682;9.032;2022-11-15T00:31:14;3.03;;;2.70;;
13469;SDS011;6807;48.682;9.032;2022-11-15T00:33:42;5.55;;;2.78;;
13469;SDS011;6807;48.682;9.032;2022-11-15T00:36:10;3.50;;;2.53;;
13469;SDS011;6807;48.682;9.032;2022-11-15T00:38:38;3.78;;;2.70;;
13469;SDS011;6807;48.682;9.032;2022-11-15T00:41:06;3.78;;;2.90;;
13469;SDS011;6807;48.682;9.032;2022-11-15T00:43:36;3.67;;;3.03;;
13469;SDS011;6807;48.682;9.032;2022-11-15T00:46:05;4.47;;;2.90;;
13469;SDS011;6807;48.682;9.032;2022-11-15T00:48:33;3.30;;;2.85;;
13469;SDS011;6807;48.682;9.032;2022-11-15T00:51:00;3.45;;;2.60;;
13469;SDS011;6807;48.682;9.032;2022-11-15T00:53:28;4.07;;;2.83;;
13469;SDS011;6807;48.682;9.032;2022-11-15T00:55:55;3.85;;;3.03;;
13469;SDS011;6807;48.682;9.032;2022-11-15T00:58:22;5.80;;;2.95;;
13469;SDS011;6807;48.682;9.032;2022-11-15T01:00:51;5.57;;;3.60;;
13469;SDS011;6807;48.682;9.032;2022-11-15T01:03:19;3.92;;;3.13;;
13469;SDS011;6807;48.682;9.032;2022-11-15T01:05:47;3.85;;;2.90;;
13469;SDS011;6807;48.682;9.032;2022-11-15T01:08:14;3.55;;;2.63;;
13469;SDS011;6807;48.682;9.032;2022-11-15T01:10:43;5.18;;;2.80;;
13469;SDS011;6807;48.682;9.032;2022-11-15T01:13:10;3.47;;;2.83;;
13469;SDS011;6807;48.682;9.032;2022-11-15T01:15:39;3.47;;;2.83;;
13469;SDS011;6807;48.682;9.032;2022-11-15T01:18:07;3.70;;;2.58;;
13469;SDS011;6807;48.682;9.032;2022-11-15T01:20:38;3.72;;;2.65;;
13469;SDS011;6807;48.682;9.032;2022-11-15T01:23:06;6.93;;;3.35;;
13469;SDS011;6807;48.682;9.032;2022-11-15T01:25:33;3.67;;;3.00;;
13469;SDS011;6807;48.682;9.032;2022-11-15T01:28:00;3.72;;;3.03;;
13469;SDS011;6807;48.682;9.032;2022-11-15T01:30:27;3.33;;;2.65;;
13469;SDS011;6807;48.682;9.032;2022-11-15T01:32:55;5.80;;;2.80;;
13469;SDS011;6807;48.682;9.032;2022-11-15T01:35:23;3.83;;;2.83;;
13469;SDS011;6807;48.682;9.032;2022-11-15T01:37:52;4.97;;;2.72;;
13469;SDS011;6807;48.682;9.032;2022-11-15T01:40:19;2.95;;;2.65;;
13469;SDS011;6807;48.682;9.032;2022-11-15T01:42:46;2.40;;;2.20;;
13469;SDS011;6807;48.682;9.032;2022-11-15T01:45:14;6.38;;;2.78;;
13469;SDS011;6807;48.682;9.032;2022-11-15T01:47:42;3.08;;;2.63;;
13469;SDS011;6807;48.682;9.032;2022-11-15T01:50:10;3.85;;;2.60;;
13469;SDS011;6807;48.682;9.032;2022-11-15T01:52:40;8.68;;;3.05;;
13469;SDS011;6807;48.682;9.032;2022-11-15T01:55:09;3.47;;;2.92;;
13469;SDS011;6807;48.682;9.032;2022-11-15T01:57:37;3.95;;;3.03;;
13469;SDS011;6807;48.682;9.032;2022-11-15T02:00:07;3.83;;;2.88;;
13469;SDS011;6807;48.682;9.032;2022-11-15T02:02:34;4.03;;;3.22;;
13469;SDS011;6807;48.682;9.032;2022-11-15T02:05:03;3.45;;;3.15;;
13469;SDS011;6807;48.682;9.032;2022-11-15T02:07:31;5.70;;;2.72;;
13469;SDS011;6807;48.682;9.032;2022-11-15T02:10:02;4.70;;;3.08;;
13469;SDS011;6807;48.682;9.032;2022-11-15T02:12:31;5.97;;;2.90;;
13469;SDS011;6807;48.682;9.032;2022-11-15T02:14:59;4.57;;;2.92;;
13469;SDS011;6807;48.682;9.032;2022-11-15T02:17:38;4.68;;;3.20;;
13469;SDS011;6807;48.682;9.032;2022-11-15T02:22:57;3.33;;;2.83;;
13469;SDS011;6807;48.682;9.032;2022-11-15T02:31:20;4.53;;;3.10;;
13469;SDS011;6807;48.682;9.032;2022-11-15T02:34:01;4.03;;;3.05;;
13469;SDS011;6807;48.682;9.032;2022-11-15T02:39:28;3.75;;;3.03;;
13469;SDS011;6807;48.682;9.032;2022-11-15T02:41:59;3.63;;;2.85;;
13469;SDS011;6807;48.682;9.032;2022-11-15T02:44:30;5.03;;;2.70;;
13469;SDS011;6807;48.682;9.032;2022-11-15T02:47:00;3.40;;;2.90;;
13469;SDS011;6807;48.682;9.032;2022-11-15T02:49:41;3.42;;;2.97;;
13469;SDS011;6807;48.682;9.032;2022-11-15T02:52:28;3.75;;;2.75;;
13469;SDS011;6807;48.682;9.032;2022-11-15T02:54:56;4.30;;;2.90;;
13469;SDS011;6807;48.682;9.032;2022-11-15T02:57:29;3.63;;;3.00;;
13469;SDS011;6807;48.682;9.032;2022-11-15T03:08:31;3.75;;;3.00;;
13469;SDS011;6807;48.682;9.032;2022-11-15T03:16:40;4.57;;;2.97;;
13469;SDS011;6807;48.682;9.032;2022-11-15T03:19:11;3.45;;;2.80;;
13469;SDS011;6807;48.682;9.032;2022-11-15T03:21:42;3.47;;;2.80;;
13469;SDS011;6807;48.682;9.032;2022-11-15T03:24:11;4.68;;;2.90;;
13469;SDS011;6807;48.682;9.032;2022-11-15T03:26:40;3.92;;;2.78;;
13469;SDS011;6807;48.682;9.032;2022-11-15T03:29:15;3.00;;;2.70;;
13469;SDS011;6807;48.682;9.032;2022-11-15T03:31:51;5.82;;;3.08;;
13469;SDS011;6807;48.682;9.032;2022-11-15T03:37:26;3.47;;;3.17;;
13469;SDS011;6807;48.682;9.032;2022-11-15T03:40:06;5.40;;;3.08;;
13469;SDS011;6807;48.682;9.032;2022-11-15T03:42:34;5.45;;;3.00;;
13469;SDS011;6807;48.682;9.032;2022-11-15T03:45:07;3.83;;;3.17;;
13469;SDS011;6807;48.682;9.032;2022-11-15T03:47:40;2.85;;;2.55;;
13469;SDS011;6807;48.682;9.032;2022-11-15T03:50:10;4.22;;;2.80;;
13469;SDS011;6807;48.682;9.032;2022-11-15T03:52:38;4.03;;;3.03;;
13469;SDS011;6807;48.682;9.032;2022-11-15T03:55:19;3.40;;;2.78;;
13469;SDS011;6807;48.682;9.032;2022-11-15T03:57:47;4.75;;;2.70;;
13469;SDS011;6807;48.682;9.032;2022-11-15T04:00:15;3.47;;;2.90;;
13469;SDS011;6807;48.682;9.032;2022-11-15T04:05:46;3.58;;;3.00;;
13469;SDS011;6807;48.682;9.032;2022-11-15T04:11:04;3.10;;;2.70;;
13469;SDS011;6807;48.682;9.032;2022-11-15T04:16:19;3.78;;;2.80;;
13469;SDS011;6807;48.682;9.032;2022-11-15T04:18:47;2.88;;;2.55;;
13469;SDS011;6807;48.682;9.032;2022-11-15T04:24:23;2.90;;;2.60;;
13469;SDS011;6807;48.682;9.032;2022-11-15T04:29:42;4.43;;;2.78;;
13469;SDS011;6807;48.682;9.032;2022-11-15T04:32:09;3.95;;;2.78;;
13469;SDS011;6807;48.682;9.032;2022-11-15T04:34:43;3.03;;;2.70;;
13469;SDS011;6807;48.682;9.032;2022-11-15T04:37:10;3.70;;;2.60;;
13469;SDS011;6807;48.682;9.032;2022-11-15T04:39:37;3.00;;;2.70;;
13469;SDS011;6807;48.682;9.032;2022-11-15T04:42:12;4.80;;;2.95;;
13469;SDS011;6807;48.682;9.032;2022-11-15T04:47:34;3.40;;;2.40;;
13469;SDS011;6807;48.682;9.032;2022-11-15T04:50:01;4.25;;;2.55;;
13469;SDS011;6807;48.682;9.032;2022-11-15T04:55:17;2.95;;;2.65;;
13469;SDS011;6807;48.682;9.032;2022-11-15T04:57:45;3.13;;;2.83;;
13469;SDS011;6807;48.682;9.032;2022-11-15T05:03:13;2.97;;;2.40;;
13469;SDS011;6807;48.682;9.032;2022-11-15T05:11:38;3.08;;;2.40;;
13469;SDS011;6807;48.682;9.032;2022-11-15T05:16:41;5.43;;;3.13;;
13469;SDS011;6807;48.682;9.032;2022-11-15T05:22:20;4.28;;;2.72;;
13469;SDS011;6807;48.682;9.032;2022-11-15T05:28:09;3.05;;;2.75;;
13469;SDS011;6807;48.682;9.032;2022-11-15T05:30:38;3.67;;;2.95;;
13469;SDS011;6807;48.682;9.032;2022-11-15T05:33:19;3.78;;;2.45;;
13469;SDS011;6807;48.682;9.032;2022-11-15T05:35:48;3.53;;;3.00;;
13469;SDS011;6807;48.682;9.032;2022-11-15T05:38:19;4.50;;;3.03;;
13469;SDS011;6807;48.682;9.032;2022-11-15T05:40:58;3.45;;;2.80;;
13469;SDS011;6807;48.682;9.032;2022-11-15T05:43:26;3.80;;;2.97;;
13469;SDS011;6807;48.682;9.032;2022-11-15T05:45:54;4.43;;;2.45;;
13469;SDS011;6807;48.682;9.032;2022-11-15T05:48:21;5.53;;;2.88;;
13469;SDS011;6807;48.682;9.032;2022-11-15T05:50:53;4.60;;;2.67;;
13469;SDS011;6807;48.682;9.032;2022-11-15T05:53:21;4.85;;;2.75;;
13469;SDS011;6807;48.682;9.032;2022-11-15T05:55:50;3.38;;;2.60;;
13469;SDS011;6807;48.682;9.032;2022-11-15T05:58:17;3.13;;;2.80;;
13469;SDS011;6807;48.682;9.032;2022-11-15T06:00:45;3.45;;;2.60;;
13469;SDS011;6807;48.682;9.032;2022-11-15T06:05:59;2.67;;;2.47;;
13469;SDS011;6807;48.682;9.032;2022-11-15T06:08:28;2.50;;;2.20;;
13469;SDS011;6807;48.682;9.032;2022-11-15T06:10:55;3.83;;;2.80;;
13469;SDS011;6807;48.682;9.032;2022-11-15T06:13:22;5.75;;;3.05;;
13469;SDS011;6807;48.682;9.032;2022-11-15T06:15:50;3.28;;;2.90;;
13469;SDS011;6807;48.682;9.032;2022-11-15T06:18:17;4.55;;;3.13;;
13469;SDS011;6807;48.682;9.032;2022-11-15T06:20:45;3.20;;;2.55;;
13469;SDS011;6807;48.682;9.032;2022-11-15T06:23:12;5.20;;;3.10;;
13469;SDS011;6807;48.682;9.032;2022-11-15T06:25:41;5.20;;;2.90;;
13469;SDS011;6807;48.682;9.032;2022-11-15T06:28:08;5.00;;;3.50;;
13469;SDS011;6807;48.682;9.032;2022-11-15T06:30:35;4.20;;;3.15;;
13469;SDS011;6807;48.682;9.032;2022-11-15T06:33:03;5.13;;;3.35;;
13469;SDS011;6807;48.682;9.032;2022-11-15T06:35:33;5.85;;;3.72;;
13469;SDS011;6807;48.682;9.032;2022-11-15T06:38:03;5.68;;;3.90;;
13469;SDS011;6807;48.682;9.032;2022-11-15T06:40:32;4.22;;;3.50;;
13469;SDS011;6807;48.682;9.032;2022-11-15T06:43:01;5.35;;;3.53;;
13469;SDS011;6807;48.682;9.032;2022-11-15T06:45:29;4.00;;;3.60;;
13469;SDS011;6807;48.682;9.032;2022-11-15T06:47:56;3.53;;;2.90;;
13469;SDS011;6807;48.682;9.032;2022-11-15T06:50:24;4.35;;;3.47;;
13469;SDS011;6807;48.682;9.032;2022-11-15T06:52:51;5.70;;;3.78;;
13469;SDS011;6807;48.682;9.032;2022-11-15T06:55:20;3.70;;;3.28;;
13469;SDS011;6807;48.682;9.032;2022-11-15T06:57:48;7.97;;;3.88;;
13469;SDS011;6807;48.682;9.032;2022-11-15T07:00:18;4.97;;;3.60;;
13469;SDS011;6807;48.682;9.032;2022-11-15T07:02:46;3.50;;;3.17;;
13469;SDS011;6807;48.682;9.032;2022-11-15T07:05:14;3.28;;;2.78;;
13469;SDS011;6807;48.682;9.032;2022-11-15T07:07:42;3.95;;;3.33;;
13469;SDS011;6807;48.682;9.032;2022-11-15T07:10:10;5.05;;;3.60;;
13469;SDS011;6807;48.682;9.032;2022-11-15T07:12:37;3.25;;;2.70;;
13469;SDS011;6807;48.682;9.032;2022-11-15T07:15:05;5.13;;;3.67;;
13469;SDS011;6807;48.682;9.032;2022-11-15T07:17:34;4.03;;;3.40;;
13469;SDS011;6807;48.682;9.032;2022-11-15T07:20:01;3.85;;;3.47;;
13469;SDS011;6807;48.682;9.032;2022-11-15T07:22:29;3.33;;;2.90;;
13469;SDS011;6807;48.682;9.032;2022-11-15T07:24:56;5.85;;;3.50;;
13469;SDS011;6807;48.682;9.032;2022-11-15T07:27:23;4.22;;;3.00;;
13469;SDS011;6807;48.682;9.032;2022-11-15T07:29:50;3.15;;;2.85;;
13469;SDS011;6807;48.682;9.032;2022-11-15T07:32:18;4.20;;;2.80;;
13469;SDS011;6807;48.682;9.032;2022-11-15T07:34:46;3.50;;;2.50;;
13469;SDS011;6807;48.682;9.032;2022-11-15T07:37:14;2.30;;;2.00;;
13469;SDS011;6807;48.682;9.032;2022-11-15T07:39:42;4.68;;;2.45;;
13469;SDS011;6807;48.682;9.032;2022-11-15T07:42:09;2.55;;;2.33;;
13469;SDS011;6807;48.682;9.032;2022-11-15T07:44:54;2.88;;;2.35;;
13469;SDS011;6807;48.682;9.032;2022-11-15T07:47:22;3.42;;;2.17;;
13469;SDS011;6807;48.682;9.032;2022-11-15T07:49:50;2.13;;;1.90;;
13469;SDS011;6807;48.682;9.032;2022-11-15T07:52:18;2.97;;;1.95;;
13469;SDS011;6807;48.682;9.032;2022-11-15T07:54:46;3.75;;;1.98;;
13469;SDS011;6807;48.682;9.032;2022-11-15T07:57:20;5.00;;;2.40;;
13469;SDS011;6807;48.682;9.032;2022-11-15T07:59:54;2.65;;;2.10;;
13469;SDS011;6807;48.682;9.032;2022-11-15T08:02:27;3.95;;;2.10;;
13469;SDS011;6807;48.682;9.032;2022-11-15T08:04:56;3.17;;;2.10;;
13469;SDS011;6807;48.682;9.032;2022-11-15T08:07:24;2.63;;;2.00;;
13469;SDS011;6807;48.682;9.032;2022-11-15T08:09:51;2.75;;;2.10;;
13469;SDS011;6807;48.682;9.032;2022-11-15T08:12:21;5.13;;;2.17;;
13469;SDS011;6807;48.682;9.032;2022-11-15T08:14:48;4.05;;;2.65;;
13469;SDS011;6807;48.682;9.032;2022-11-15T08:26:34;2.00;;;1.77;;
13469;SDS011;6807;48.682;9.032;2022-11-15T08:29:01;3.63;;;2.10;;
13469;SDS011;6807;48.682;9.032;2022-11-15T08:31:28;2.10;;;1.90;;
13469;SDS011;6807;48.682;9.032;2022-11-15T08:33:56;3.17;;;2.10;;
13469;SDS011;6807;48.682;9.032;2022-11-15T08:36:23;2.00;;;1.80;;
13469;SDS011;6807;48.682;9.032;2022-11-15T08:38:51;2.92;;;2.20;;
13469;SDS011;6807;48.682;9.032;2022-11-15T08:41:19;1.88;;;1.70;;
13469;SDS011;6807;48.682;9.032;2022-11-15T08:43:51;2.47;;;1.80;;
13469;SDS011;6807;48.682;9.032;2022-11-15T08:46:19;2.15;;;1.90;;
13469;SDS011;6807;48.682;9.032;2022-11-15T08:48:46;3.03;;;2.03;;
13469;SDS011;6807;48.682;9.032;2022-11-15T08:51:13;2.30;;;2.10;;
13469;SDS011;6807;48.682;9.032;2022-11-15T08:53:40;2.78;;;2.13;;
13469;SDS011;6807;48.682;9.032;2022-11-15T08:56:08;2.33;;;1.90;;
13469;SDS011;6807;48.682;9.032;2022-11-15T08:58:35;1.83;;;1.70;;
13469;SDS011;6807;48.682;9.032;2022-11-15T09:01:04;1.83;;;1.70;;
13469;SDS011;6807;48.682;9.032;2022-11-15T09:03:32;1.90;;;1.73;;
13469;SDS011;6807;48.682;9.032;2022-11-15T09:05:59;2.58;;;2.00;;
13469;SDS011;6807;48.682;9.032;2022-11-15T09:08:29;1.92;;;1.73;;
13469;SDS011;6807;48.682;9.032;2022-11-15T09:10:56;2.45;;;1.92;;
13469;SDS011;6807;48.682;9.032;2022-11-15T09:13:24;1.98;;;1.67;;
13469;SDS011;6807;48.682;9.032;2022-11-15T09:15:51;2.38;;;2.17;;
13469;SDS011;6807;48.682;9.032;2022-11-15T09:18:21;2.58;;;1.90;;
13469;SDS011;6807;48.682;9.032;2022-11-15T09:20:48;2.45;;;1.75;;
13469;SDS011;6807;48.682;9.032;2022-11-15T09:23:15;1.83;;;1.67;;
13469;SDS011;6807;48.682;9.032;2022-11-15T09:25:43;3.28;;;2.30;;
13469;SDS011;6807;48.682;9.032;2022-11-15T09:28:11;2.08;;;1.88;;
13469;SDS011;6807;48.682;9.032;2022-11-15T09:30:39;4.63;;;2.40;;
13469;SDS011;6807;48.682;9.032;2022-11-15T09:33:06;2.38;;;2.13;;
13469;SDS011;6807;48.682;9.032;2022-11-15T09:35:35;6.10;;;2.28;;
13469;SDS011;6807;48.682;9.032;2022-11-15T09:38:02;2.80;;;2.10;;
13469;SDS011;6807;48.682;9.032;2022-11-15T09:40:31;2.50;;;1.80;;
13469;SDS011;6807;48.682;9.032;2022-11-15T09:43:02;4.25;;;2.20;;
13469;SDS011;6807;48.682;9.032;2022-11-15T09:45:31;3.58;;;2.28;;
13469;SDS011;6807;48.682;9.032;2022-11-15T09:48:05;2.40;;;1.95;;
13469;SDS011;6807;48.682;9.032;2022-11-15T09:50:38;2.70;;;2.25;;
13469;SDS011;6807;48.682;9.032;2022-11-15T09:53:09;2.28;;;1.90;;
13469;SDS011;6807;48.682;9.032;2022-11-15T09:55:41;2.40;;;2.10;;
13469;SDS011;6807;48.682;9.032;2022-11-15T09:58:15;3.80;;;2.20;;
13469;SDS011;6807;48.682;9.032;2022-11-15T10:00:50;5.68;;;2.03;;
13469;SDS011;6807;48.682;9.032;2022-11-15T10:03:22;3.15;;;1.73;;
13469;SDS011;6807;48.682;9.032;2022-11-15T10:05:52;3.42;;;2.55;;
13469;SDS011;6807;48.682;9.032;2022-11-15T10:08:26;4.93;;;2.40;;
13469;SDS011;6807;48.682;9.032;2022-11-15T10:10:56;3.47;;;2.17;;
13469;SDS011;6807;48.682;9.032;2022-11-15T10:13:25;2.33;;;2.13;;
13469;SDS011;6807;48.682;9.032;2022-11-15T10:15:54;3.03;;;2.28;;
13469;SDS011;6807;48.682;9.032;2022-11-15T10:18:25;2.80;;;2.47;;
13469;SDS011;6807;48.682;9.032;2022-11-15T10:20:58;4.50;;;2.25;;
13469;SDS011;6807;48.682;9.032;2022-11-15T10:23:25;2.50;;;2.28;;
13469;SDS011;6807;48.682;9.032;2022-11-15T10:25:54;2.30;;;1.98;;
13469;SDS011;6807;48.682;9.032;2022-11-15T10:28:22;3.05;;;2.10;;
13469;SDS011;6807;48.682;9.032;2022-11-15T10:30:53;2.20;;;2.00;;
13469;SDS011;6807;48.682;9.032;2022-11-15T10:33:25;2.97;;;2.22;;
13469;SDS011;6807;48.682;9.032;2022-11-15T10:38:51;3.78;;;2.13;;
13469;SDS011;6807;48.682;9.032;2022-11-15T10:41:19;4.10;;;1.90;;
13469;SDS011;6807;48.682;9.032;2022-11-15T10:44:01;2.47;;;1.85;;
13469;SDS011;6807;48.682;9.032;2022-11-15T10:46:29;2.55;;;1.98;;
13469;SDS011;6807;48.682;9.032;2022-11-15T10:49:03;2.55;;;1.63;;
13469;SDS011;6807;48.682;9.032;2022-11-15T10:51:40;2.30;;;2.10;;
13469;SDS011;6807;48.682;9.032;2022-11-15T10:54:10;1.90;;;1.58;;
13469;SDS011;6807;48.682;9.032;2022-11-15T10:56:38;1.70;;;1.60;;
13469;SDS011;6807;48.682;9.032;2022-11-15T10:59:12;3.53;;;1.67;;
13469;SDS011;6807;48.682;9.032;2022-11-15T11:01:45;1.92;;;1.48;;
13469;SDS011;6807;48.682;9.032;2022-11-15T11:04:13;1.92;;;1.77;;
13469;SDS011;6807;48.682;9.032;2022-11-15T11:06:46;3.65;;;2.00;;
13469;SDS011;6807;48.682;9.032;2022-11-15T11:09:22;2.67;;;2.22;;
13469;SDS011;6807;48.682;9.032;2022-11-15T11:11:49;2.83;;;1.73;;
13469;SDS011;6807;48.682;9.032;2022-11-15T11:14:20;3.08;;;1.75;;
13469;SDS011;6807;48.682;9.032;2022-11-15T11:16:49;4.55;;;1.80;;
13469;SDS011;6807;48.682;9.032;2022-11-15T11:19:30;3.50;;;1.80;;
13469;SDS011;6807;48.682;9.032;2022-11-15T11:22:01;2.05;;;1.80;;
13469;SDS011;6807;48.682;9.032;2022-11-15T11:24:33;2.97;;;1.85;;
13469;SDS011;6807;48.682;9.032;2022-11-15T11:27:08;2.08;;;1.80;;
13469;SDS011;6807;48.682;9.032;2022-11-15T11:29:49;2.22;;;1.75;;
13469;SDS011;6807;48.682;9.032;2022-11-15T11:32:25;2.80;;;1.60;;
13469;SDS011;6807;48.682;9.032;2022-11-15T11:34:55;1.65;;;1.55;;
13469;SDS011;6807;48.682;9.032;2022-11-15T11:37:28;4.22;;;1.75;;
13469;SDS011;6807;48.682;9.032;2022-11-15T11:40:04;2.25;;;1.63;;
13469;SDS011;6807;48.682;9.032;2022-11-15T11:42:36;2.03;;;1.70;;
13469;SDS011;6807;48.682;9.032;2022-11-15T11:45:11;3.55;;;1.70;;
13469;SDS011;6807;48.682;9.032;2022-11-15T11:47:44;1.60;;;1.50;;
13469;SDS011;6807;48.682;9.032;2022-11-15T11:50:15;1.65;;;1.50;;
13469;SDS011;6807;48.682;9.032;2022-11-15T11:52:45;1.55;;;1.45;;
13469;SDS011;6807;48.682;9.032;2022-11-15T11:55:19;3.17;;;2.17;;
13469;SDS011;6807;48.682;9.032;2022-11-15T11:57:50;1.60;;;1.50;;
13469;SDS011;6807;48.682;9.032;2022-11-15T12:00:18;1.85;;;1.58;;
13469;SDS011;6807;48.682;9.032;2022-11-15T12:02:48;1.63;;;1.40;;
13469;SDS011;6807;48.682;9.032;2022-11-15T12:05:29;2.67;;;1.92;;
13469;SDS011;6807;48.682;9.032;2022-11-15T12:08:01;3.08;;;1.73;;
13469;SDS011;6807;48.682;9.032;2022-11-15T12:10:32;1.90;;;1.60;;
13469;SDS011;6807;48.682;9.032;2022-11-15T12:13:01;2.38;;;1.70;;
13469;SDS011;6807;48.682;9.032;2022-11-15T12:15:32;5.50;;;1.90;;
13469;SDS011;6807;48.682;9.032;2022-11-15T12:18:02;2.03;;;1.83;;
13469;SDS011;6807;48.682;9.032;2022-11-15T12:20:32;3.33;;;1.70;;
13469;SDS011;6807;48.682;9.032;2022-11-15T12:23:01;1.60;;;1.50;;
13469;SDS011;6807;48.682;9.032;2022-11-15T12:25:33;3.35;;;1.67;;
13469;SDS011;6807;48.682;9.032;2022-11-15T12:28:11;2.75;;;1.63;;
13469;SDS011;6807;48.682;9.032;2022-11-15T12:30:43;1.55;;;1.45;;
13469;SDS011;6807;48.682;9.032;2022-11-15T12:35:57;1.98;;;1.70;;
13469;SDS011;6807;48.682;9.032;2022-11-15T12:41:13;1.95;;;1.80;;
13469;SDS011;6807;48.682;9.032;2022-11-15T12:43:42;2.30;;;1.90;;
13469;SDS011;6807;48.682;9.032;2022-11-15T12:46:11;2.10;;;1.90;;
13469;SDS011;6807;48.682;9.032;2022-11-15T12:48:51;3.47;;;1.90;;
13469;SDS011;6807;48.682;9.032;2022-11-15T12:51:22;1.98;;;1.70;;
13469;SDS011;6807;48.682;9.032;2022-11-15T12:53:50;2.20;;;1.50;;
13469;SDS011;6807;48.682;9.032;2022-11-15T12:56:22;3.58;;;1.90;;
13469;SDS011;6807;48.682;9.032;2022-11-15T12:58:51;1.80;;;1.70;;
13469;SDS011;6807;48.682;9.032;2022-11-15T13:04:08;3.05;;;1.80;;
13469;SDS011;6807;48.682;9.032;2022-11-15T13:06:38;1.75;;;1.65;;
13469;SDS011;6807;48.682;9.032;2022-11-15T13:11:52;2.17;;;1.75;;
13469;SDS011;6807;48.682;9.032;2022-11-15T13:19:57;1.88;;;1.70;;
13469;SDS011;6807;48.682;9.032;2022-11-15T13:22:25;2.67;;;1.70;;
13469;SDS011;6807;48.682;9.032;2022-11-15T13:25:14;2.40;;;1.95;;
13469;SDS011;6807;48.682;9.032;2022-11-15T13:27:45;2.78;;;1.83;;
13469;SDS011;6807;48.682;9.032;2022-11-15T13:30:14;1.70;;;1.60;;
13469;SDS011;6807;48.682;9.032;2022-11-15T13:32:42;2.13;;;1.80;;
13469;SDS011;6807;48.682;9.032;2022-11-15T13:35:17;2.40;;;1.80;;
13469;SDS011;6807;48.682;9.032;2022-11-15T13:37:45;2.60;;;1.80;;
13469;SDS011;6807;48.682;9.032;2022-11-15T13:40:19;3.13;;;1.70;;
13469;SDS011;6807;48.682;9.032;2022-11-15T13:42:49;2.38;;;1.65;;
13469;SDS011;6807;48.682;9.032;2022-11-15T13:45:17;4.32;;;1.70;;
13469;SDS011;6807;48.682;9.032;2022-11-15T13:47:47;2.38;;;1.88;;
13469;SDS011;6807;48.682;9.032;2022-11-15T13:50:17;2.72;;;2.53;;
13469;SDS011;6807;48.682;9.032;2022-11-15T13:52:47;3.78;;;2.20;;
13469;SDS011;6807;48.682;9.032;2022-11-15T13:55:16;4.05;;;3.05;;
13469;SDS011;6807;48.682;9.032;2022-11-15T13:57:45;2.45;;;2.03;;
13469;SDS011;6807;48.682;9.032;2022-11-15T14:00:26;2.33;;;1.98;;
13469;SDS011;6807;48.682;9.032;2022-11-15T14:02:54;3.33;;;2.22;;
13469;SDS011;6807;48.682;9.032;2022-11-15T14:05:23;3.25;;;1.90;;
13469;SDS011;6807;48.682;9.032;2022-11-15T14:07:53;3.05;;;1.85;;
13469;SDS011;6807;48.682;9.032;2022-11-15T14:10:25;2.70;;;2.10;;
13469;SDS011;6807;48.682;9.032;2022-11-15T14:12:54;3.40;;;1.83;;
13469;SDS011;6807;48.682;9.032;2022-11-15T14:15:27;2.85;;;2.22;;
13469;SDS011;6807;48.682;9.032;2022-11-15T14:17:57;2.15;;;1.80;;
13469;SDS011;6807;48.682;9.032;2022-11-15T14:20:28;5.13;;;1.85;;
13469;SDS011;6807;48.682;9.032;2022-11-15T14:22:57;2.83;;;2.00;;
13469;SDS011;6807;48.682;9.032;2022-11-15T14:25:25;2.88;;;1.85;;
13469;SDS011;6807;48.682;9.032;2022-11-15T14:30:56;4.70;;;1.95;;
13469;SDS011;6807;48.682;9.032;2022-11-15T14:33:25;4.00;;;2.10;;
13469;SDS011;6807;48.682;9.032;2022-11-15T14:35:53;4.55;;;2.10;;
13469;SDS011;6807;48.682;9.032;2022-11-15T14:38:23;3.05;;;1.92;;
13469;SDS011;6807;48.682;9.032;2022-11-15T14:40:50;6.07;;;2.67;;
13469;SDS011;6807;48.682;9.032;2022-11-15T14:43:19;2.35;;;2.15;;
13469;SDS011;6807;48.682;9.032;2022-11-15T14:45:52;3.05;;;1.92;;
13469;SDS011;6807;48.682;9.032;2022-11-15T14:50:59;2.58;;;2.30;;
13469;SDS011;6807;48.682;9.032;2022-11-15T14:53:26;3.03;;;2.45;;
13469;SDS011;6807;48.682;9.032;2022-11-15T14:56:06;2.70;;;2.50;;
13469;SDS011;6807;48.682;9.032;2022-11-15T14:58:36;3.13;;;2.25;;
13469;SDS011;6807;48.682;9.032;2022-11-15T15:01:09;2.67;;;2.30;;
13469;SDS011;6807;48.682;9.032;2022-11-15T15:03:37;2.28;;;1.98;;
13469;SDS011;6807;48.682;9.032;2022-11-15T15:06:06;2.55;;;1.58;;
13469;SDS011;6807;48.682;9.032;2022-11-15T15:08:34;2.22;;;2.00;;
13469;SDS011;6807;48.682;9.032;2022-11-15T15:11:03;3.00;;;2.00;;
13469;SDS011;6807;48.682;9.032;2022-11-15T15:13:31;3.20;;;2.15;;
13469;SDS011;6807;48.682;9.032;2022-11-15T15:15:59;4.60;;;2.40;;
13469;SDS011;6807;48.682;9.032;2022-11-15T15:18:26;5.63;;;2.03;;
13469;SDS011;6807;48.682;9.032;2022-11-15T15:20:55;4.00;;;2.25;;
13469;SDS011;6807;48.682;9.032;2022-11-15T15:23:26;3.38;;;2.08;;
13469;SDS011;6807;48.682;9.032;2022-11-15T15:25:56;4.00;;;2.40;;
13469;SDS011;6807;48.682;9.032;2022-11-15T15:28:23;5.13;;;2.35;;
13469;SDS011;6807;48.682;9.032;2022-11-15T15:30:51;3.92;;;2.22;;
13469;SDS011;6807;48.682;9.032;2022-11-15T15:33:20;2.60;;;2.30;;
13469;SDS011;6807;48.682;9.032;2022-11-15T15:35:47;3.40;;;2.50;;
13469;SDS011;6807;48.682;9.032;2022-11-15T15:38:16;5.38;;;3.10;;
13469;SDS011;6807;48.682;9.032;2022-11-15T15:40:44;2.75;;;2.45;;
13469;SDS011;6807;48.682;9.032;2022-11-15T15:43:11;4.30;;;2.97;;
13469;SDS011;6807;48.682;9.032;2022-11-15T15:45:39;4.38;;;2.78;;
13469;SDS011;6807;48.682;9.032;2022-11-15T15:48:15;2.72;;;2.45;;
13469;SDS011;6807;48.682;9.032;2022-11-15T15:50:44;3.70;;;2.33;;
13469;SDS011;6807;48.682;9.032;2022-11-15T15:53:12;2.88;;;2.55;;
13469;SDS011;6807;48.682;9.032;2022-11-15T15:55:41;5.50;;;2.40;;
13469;SDS011;6807;48.682;9.032;2022-11-15T15:58:09;2.78;;;2.20;;
13469;SDS011;6807;48.682;9.032;2022-11-15T16:00:37;3.72;;;2.40;;
13469;SDS011;6807;48.682;9.032;2022-11-15T16:03:04;2.67;;;2.20;;
13469;SDS011;6807;48.682;9.032;2022-11-15T16:05:31;5.35;;;2.22;;
13469;SDS011;6807;48.682;9.032;2022-11-15T16:07:59;2.42;;;2.17;;
13469;SDS011;6807;48.682;9.032;2022-11-15T16:10:27;4.68;;;2.38;;
13469;SDS011;6807;48.682;9.032;2022-11-15T16:12:55;3.00;;;2.45;;
13469;SDS011;6807;48.682;9.032;2022-11-15T16:15:24;2.97;;;2.40;;
13469;SDS011;6807;48.682;9.032;2022-11-15T16:17:53;2.80;;;2.60;;
13469;SDS011;6807;48.682;9.032;2022-11-15T16:20:22;5.78;;;2.78;;
13469;SDS011;6807;48.682;9.032;2022-11-15T16:22:52;2.78;;;2.47;;
13469;SDS011;6807;48.682;9.032;2022-11-15T16:25:19;3.35;;;2.47;;
13469;SDS011;6807;48.682;9.032;2022-11-15T16:27:47;4.45;;;2.45;;
13469;SDS011;6807;48.682;9.032;2022-11-15T16:30:15;3.25;;;2.60;;
13469;SDS011;6807;48.682;9.032;2022-11-15T16:32:44;6.63;;;2.85;;
13469;SDS011;6807;48.682;9.032;2022-11-15T16:35:11;4.15;;;2.20;;
13469;SDS011;6807;48.682;9.032;2022-11-15T16:37:39;4.80;;;2.42;;
13469;SDS011;6807;48.682;9.032;2022-11-15T16:40:10;7.90;;;3.25;;
13469;SDS011;6807;48.682;9.032;2022-11-15T16:42:44;5.40;;;2.80;;
13469;SDS011;6807;48.682;9.032;2022-11-15T16:45:11;7.40;;;3.00;;
13469;SDS011;6807;48.682;9.032;2022-11-15T16:47:39;3.60;;;2.63;;
13469;SDS011;6807;48.682;9.032;2022-11-15T16:50:11;5.00;;;3.42;;
13469;SDS011;6807;48.682;9.032;2022-11-15T16:52:48;4.82;;;2.53;;
13469;SDS011;6807;48.682;9.032;2022-11-15T16:55:16;3.08;;;2.70;;
13469;SDS011;6807;48.682;9.032;2022-11-15T16:57:45;4.57;;;2.80;;
13469;SDS011;6807;48.682;9.032;2022-11-15T17:00:12;6.25;;;2.97;;